createdAt,value
2023-02-19T00:03:50.983Z,94654.63
2023-02-19T00:08:52.367Z,94642.78
2023-02-19T00:13:53.617Z,94637.81
2023-02-19T00:18:54.890Z,94637.78
2023-02-19T00:23:56.216Z,94638.13
2023-02-19T00:28:57.619Z,94622.41
2023-02-19T00:33:58.930Z,94615.91
2023-02-19T00:39:00.255Z,94617.41
2023-02-19T00:44:01.565Z,94617.81
2023-02-19T00:49:02.868Z,94594.84
2023-02-19T00:54:04.189Z,94597.09
2023-02-19T00:59:05.484Z,94592.84
2023-02-19T01:04:07.053Z,94580.25
2023-02-19T01:09:08.377Z,94591.28
2023-02-19T01:14:09.699Z,94562.97
2023-02-19T01:19:11.335Z,94573.31
2023-02-19T01:24:12.637Z,94584.78
2023-02-19T01:29:13.925Z,94601.66
2023-02-19T01:34:15.217Z,94599.28
2023-02-19T01:39:16.524Z,94616.63
2023-02-19T01:44:17.796Z,94625.06
2023-02-19T01:49:19.059Z,94624.25
2023-02-19T01:54:20.324Z,94635.72
2023-02-19T01:59:21.620Z,94646.38
2023-02-19T02:04:22.923Z,94639.13
2023-02-19T02:09:24.203Z,94617.28
2023-02-19T02:14:25.476Z,94608.50
2023-02-19T02:19:26.785Z,94611.16
2023-02-19T02:24:28.056Z,94618.06
2023-02-19T02:29:29.341Z,94632.16
2023-02-19T02:34:30.617Z,94633.69
2023-02-19T02:39:31.888Z,94622.97
2023-02-19T02:44:33.180Z,94645.50
2023-02-19T02:49:34.437Z,94652.03
2023-02-19T02:54:35.663Z,94636.66
2023-02-19T02:59:36.924Z,94642.78
2023-02-19T03:04:38.233Z,94628.66
2023-02-19T03:09:39.549Z,94637.06
2023-02-19T03:14:40.856Z,94645.03
2023-02-19T03:19:42.341Z,94641.59
2023-02-19T03:24:43.597Z,94640.44
2023-02-19T03:29:44.864Z,94656.16
2023-02-19T03:34:46.159Z,94667.22
2023-02-19T03:39:47.423Z,94673.00
2023-02-19T03:44:48.676Z,94683.72
2023-02-19T03:49:50.052Z,94669.22
2023-02-19T03:54:51.307Z,94684.78
2023-02-19T03:59:52.612Z,94685.59
2023-02-19T04:04:53.896Z,94690.16
2023-02-19T04:09:55.238Z,94706.38
2023-02-19T04:14:56.531Z,94700.22
2023-02-19T04:19:57.904Z,94704.53
2023-02-19T04:24:59.201Z,94711.34
2023-02-19T04:30:00.569Z,94699.25
2023-02-19T04:35:01.898Z,94704.94
2023-02-19T04:40:03.204Z,94712.31
2023-02-19T04:45:04.527Z,94704.97
2023-02-19T04:50:05.747Z,94715.75
2023-02-19T04:55:07.093Z,94719.59
2023-02-19T05:00:08.416Z,94720.75
2023-02-19T05:05:09.706Z,94729.19
2023-02-19T05:10:11.004Z,94726.50
2023-02-19T05:15:12.245Z,94716.91
2023-02-19T05:20:13.488Z,94724.56
2023-02-19T05:25:14.803Z,94730.38
2023-02-19T05:30:16.143Z,94727.31
2023-02-19T05:35:17.441Z,94728.94
2023-02-19T05:40:18.718Z,94735.47
2023-02-19T05:45:20.038Z,94743.19
2023-02-19T05:50:21.328Z,94740.91
2023-02-19T05:55:22.793Z,94734.75
2023-02-19T06:00:24.153Z,94752.03
2023-02-19T06:05:25.434Z,94766.66
2023-02-19T06:10:26.733Z,94773.59
2023-02-19T06:15:28.084Z,94778.59
2023-02-19T06:20:29.349Z,94788.06
2023-02-19T06:25:30.630Z,94773.69
2023-02-19T06:30:32.031Z,94779.97
2023-02-19T06:35:33.344Z,94778.31
2023-02-19T06:40:34.866Z,94780.72
2023-02-19T06:45:36.185Z,94777.97
2023-02-19T06:50:37.566Z,94785.69
2023-02-19T06:55:38.921Z,94791.50
2023-02-19T07:00:40.213Z,94788.16
2023-02-19T07:05:41.584Z,94798.03
2023-02-19T07:10:42.887Z,94796.72
2023-02-19T07:15:44.178Z,94796.16
2023-02-19T07:20:45.567Z,94794.81
2023-02-19T07:25:46.841Z,94784.91
2023-02-19T07:30:48.289Z,94786.66
2023-02-19T07:35:49.562Z,94775.69
2023-02-19T07:40:50.851Z,94773.72
2023-02-19T07:45:52.259Z,94773.69
2023-02-19T07:50:53.694Z,94756.88
2023-02-19T07:55:55.019Z,94759.94
2023-02-19T08:00:56.369Z,94755.75
2023-02-19T08:05:57.673Z,94763.81
2023-02-19T08:10:58.950Z,94755.75
2023-02-19T08:16:15.957Z,94750.91
2023-02-19T08:21:19.997Z,94757.03
2023-02-19T08:26:21.393Z,94755.81
2023-02-19T08:31:22.766Z,94753.88
2023-02-19T08:36:24.184Z,94754.69
2023-02-19T08:41:25.678Z,94752.00
2023-02-19T08:46:26.968Z,94745.19
2023-02-19T08:51:28.417Z,94742.09
2023-02-19T08:56:29.692Z,94742.78
2023-02-19T09:01:31.047Z,94735.06
2023-02-19T09:06:32.396Z,94732.00
2023-02-19T09:11:33.697Z,94732.00
2023-02-19T09:16:34.989Z,94719.28
2023-02-19T09:21:36.432Z,94715.09
2023-02-19T09:26:38.666Z,94718.09
2023-02-19T09:31:40.231Z,94720.72
2023-02-19T09:36:41.570Z,94715.28
2023-02-19T09:41:42.864Z,94710.22
2023-02-19T09:46:44.190Z,94705.19
2023-02-19T09:51:45.580Z,94698.59
2023-02-19T09:56:46.845Z,94697.31
2023-02-19T10:01:48.476Z,94670.75
2023-02-19T10:06:49.829Z,94658.75
2023-02-19T10:11:51.670Z,94654.16
2023-02-19T10:16:52.996Z,94643.72
2023-02-19T10:21:54.350Z,94627.59
2023-02-19T10:26:55.644Z,94626.03
2023-02-19T10:31:57.126Z,94619.84
2023-02-19T10:36:58.527Z,94603.38
2023-02-19T10:41:59.875Z,94587.66
2023-02-19T10:47:01.193Z,94575.34
2023-02-19T10:52:02.625Z,94561.13
2023-02-19T10:57:03.916Z,94551.88
2023-02-19T11:02:05.382Z,94541.09
2023-02-19T11:07:06.808Z,94532.25
2023-02-19T11:12:09.547Z,94516.16
2023-02-19T11:17:11.003Z,94508.47
2023-02-19T11:22:12.295Z,94505.00
2023-02-19T11:27:13.754Z,94494.28
2023-02-19T11:32:15.168Z,94483.56
2023-02-19T11:37:16.590Z,94470.88
2023-02-19T11:42:17.917Z,94472.81
2023-02-19T11:47:19.190Z,94455.94
2023-02-19T11:52:20.577Z,94454.75
2023-02-19T11:57:21.896Z,94450.94
2023-02-19T12:02:23.362Z,94435.59
2023-02-19T12:07:24.580Z,94430.63
2023-02-19T12:12:25.903Z,94435.19
2023-02-19T12:17:27.212Z,94420.22
2023-02-19T12:22:28.528Z,94414.47
2023-02-19T12:27:29.808Z,94399.91
2023-02-19T12:32:31.104Z,94391.84
2023-02-19T12:37:32.407Z,94376.53
2023-02-19T12:42:33.657Z,94365.44
2023-02-19T12:47:35.081Z,94357.38
2023-02-19T12:52:36.415Z,94348.19
2023-02-19T12:57:37.690Z,94328.28
2023-02-19T13:02:39.130Z,94332.47
2023-02-19T13:07:40.611Z,94320.25
2023-02-19T13:12:41.906Z,94322.91
2023-02-19T13:17:43.314Z,94318.69
2023-02-19T13:22:44.622Z,94302.63
2023-02-19T13:32:52.331Z,94288.88
2023-02-19T13:37:53.689Z,94283.88
2023-02-19T13:42:55.112Z,94281.56
2023-02-19T13:47:56.426Z,94272.03
2023-02-19T13:52:57.780Z,94278.91
2023-02-19T13:57:59.141Z,94271.22
2023-02-19T14:03:00.462Z,94266.97
2023-02-19T14:08:01.873Z,94262.38
2023-02-19T14:13:03.149Z,94254.75
2023-02-19T14:18:04.484Z,94246.69
2023-02-19T14:23:05.781Z,94248.25
2023-02-19T14:28:07.054Z,94246.72
2023-02-19T14:33:10.930Z,94234.47
2023-02-19T14:38:12.407Z,94227.56
2023-02-19T14:43:13.769Z,94220.28
2023-02-19T14:48:15.380Z,94211.09
2023-02-19T14:53:16.651Z,94216.44
2023-02-19T14:58:17.965Z,94218.34
2023-02-19T15:03:19.332Z,94208.38
2023-02-19T15:08:20.620Z,94195.72
2023-02-19T15:13:21.853Z,94206.81
2023-02-19T15:18:23.216Z,94203.72
2023-02-19T15:23:24.575Z,94202.97
2023-02-19T15:28:25.973Z,94202.97
2023-02-19T15:33:27.289Z,94200.66
2023-02-19T15:38:28.609Z,94215.19
2023-02-19T15:43:30.430Z,94230.84
2023-02-19T15:48:31.761Z,94240.81
2023-02-19T15:53:33.338Z,94235.81
2023-02-19T15:58:34.648Z,94235.06
2023-02-19T16:03:36.040Z,94243.44
2023-02-19T16:08:37.370Z,94254.88
2023-02-19T16:13:38.738Z,94255.63
2023-02-19T16:18:39.972Z,94249.09
2023-02-19T16:23:41.192Z,94259.78
2023-02-19T16:28:42.518Z,94266.22
2023-02-19T16:33:43.843Z,94272.34
2023-02-19T16:38:45.152Z,94284.56
2023-02-19T16:43:46.615Z,94282.59
2023-02-19T16:48:47.908Z,94296.34
2023-02-19T16:53:49.167Z,94292.50
2023-02-19T16:58:50.515Z,94296.31
2023-02-19T17:03:51.934Z,94306.63
2023-02-19T17:08:53.246Z,94312.41
2023-02-19T17:13:54.634Z,94309.03
2023-02-19T17:18:55.938Z,94314.81
2023-02-19T17:23:57.392Z,94323.66
2023-02-19T17:28:58.638Z,94332.47
2023-02-19T17:33:59.948Z,94352.34
2023-02-19T17:39:01.200Z,94351.19
2023-02-19T17:44:02.499Z,94355.81
2023-02-19T17:49:03.771Z,94360.03
2023-02-19T17:54:06.964Z,94351.59
2023-02-19T17:59:09.680Z,94356.16
2023-02-19T18:04:11.019Z,94367.97
2023-02-19T18:09:12.392Z,94369.47
2023-02-19T18:14:13.668Z,94384.69
2023-02-19T18:19:14.988Z,94385.38
2023-02-19T18:24:16.354Z,94399.06
2023-02-19T18:29:17.778Z,94400.59
2023-02-19T18:34:19.031Z,94407.44
2023-02-19T18:39:20.406Z,94414.75
2023-02-19T18:44:21.737Z,94424.06
2023-02-19T18:49:23.175Z,94429.44
2023-02-19T18:54:24.482Z,94430.25
2023-02-19T18:59:25.902Z,94440.34
2023-02-19T19:04:27.277Z,94443.78
2023-02-19T19:09:28.667Z,94456.88
2023-02-19T19:14:29.911Z,94463.47
2023-02-19T19:19:31.276Z,94469.66
2023-02-19T19:24:34.959Z,94480.91
2023-02-19T19:29:36.341Z,94490.84
2023-02-19T19:34:37.772Z,94500.94
2023-02-19T19:39:39.105Z,94504.00
2023-02-19T19:44:40.443Z,94498.28
2023-02-19T19:49:41.746Z,94499.41
2023-02-19T19:54:43.096Z,94512.88
2023-02-19T19:59:44.367Z,94515.16
2023-02-19T20:04:45.695Z,94520.59
2023-02-19T20:09:46.962Z,94536.31
2023-02-19T20:14:48.261Z,94530.56
2023-02-19T20:19:49.620Z,94540.50
2023-02-19T20:24:50.894Z,94537.84
2023-02-19T20:29:52.207Z,94553.91
2023-02-19T20:34:53.462Z,94553.16
2023-02-19T20:39:54.919Z,94557.88
2023-02-19T20:44:56.447Z,94563.53
2023-02-19T20:49:57.856Z,94571.69
2023-02-19T20:54:59.160Z,94582.03
2023-02-19T21:00:00.585Z,94596.69
2023-02-19T21:05:01.853Z,94590.13
2023-02-19T21:10:03.255Z,94597.34
2023-02-19T21:15:04.607Z,94596.56
2023-02-19T21:20:05.866Z,94596.16
2023-02-19T21:25:07.144Z,94598.84
2023-02-19T21:30:08.509Z,94595.84
2023-02-19T21:35:09.854Z,94608.84
2023-02-19T21:40:11.127Z,94599.69
2023-02-19T21:45:12.390Z,94613.06
2023-02-19T21:50:13.761Z,94610.72
2023-02-19T21:55:15.131Z,94617.97
2023-02-19T22:00:16.437Z,94614.88
2023-02-19T22:05:17.697Z,94627.50
2023-02-19T22:10:18.997Z,94633.97
2023-02-19T22:15:20.256Z,94636.25
2023-02-19T22:20:21.506Z,94649.41
2023-02-19T22:25:22.734Z,94652.50
2023-02-19T22:30:24.158Z,94658.16
2023-02-19T22:35:25.440Z,94668.88
2023-02-19T22:40:26.894Z,94677.06
2023-02-19T22:45:28.196Z,94684.75
2023-02-19T22:50:29.566Z,94688.59
2023-02-19T22:55:30.876Z,94683.69
2023-02-19T23:00:32.247Z,94690.56
2023-02-19T23:05:33.522Z,94675.53
2023-02-19T23:10:34.858Z,94662.09
2023-02-19T23:15:36.117Z,94663.25
2023-02-19T23:20:37.542Z,94662.91
2023-02-19T23:25:38.834Z,94654.50
2023-02-19T23:30:40.310Z,94655.22
2023-02-19T23:35:41.681Z,94658.69
2023-02-19T23:40:43.112Z,94661.78
2023-02-19T23:45:44.450Z,94670.59
2023-02-19T23:50:45.820Z,94678.25
2023-02-19T23:55:47.138Z,94697.75
